Meteo Giornale » Osservazioni meteo Italia » Gioia Del Colle

ore: 11:55 - Osservazioni Meteo Gioia Del Colle
Lat. 40° 46' N Lon. 16° 56' E Alt. 345 metri s.l.m.

poco_nuvoloso Europe/Rome

20 °C

Poco Nuvoloso

Temp. 24 Ore

7 °C

20 °C

Sud/Sud-Est

11.1 Km/h

Dew point 5 °C

Umidità 37 %

Visibilità  10 Km

Il sole sorge alle ore 05:48

Il sole tramonta alle ore 18:09

Data e Ora Cielo e Fenomeni T °C DP °C Um. % Pres. hPa Vis. km Vento km/h
Oggi h: 11:55 poco_nuvoloso Poco Nuvoloso 20 5 37 1018 10 S/SE 11.1
Oggi h: 09:55 sereno Sereno 19 4 37 1017 10 E/NE 9.3
Oggi h: 08:55 sereno Sereno 17 6 48 1017 10 N 5.5
Oggi h: 07:55 sereno Sereno 13 9 76 1017 8 N 5.5
Oggi h: 06:55 sereno Sereno 8 6 87 1016 8 N 3.7
Oggi h: 05:55 sereno Sereno 7 6 93 1016 8 N 5.5
Oggi h: 04:55 sereno Sereno 8 6 87 1015 8 N 5.5
Oggi h: 03:55 sereno Sereno 8 6 87 1015 8 N 3.7
Oggi h: 02:55 sereno Sereno 8 6 87 1015 8 N 3.7
Oggi h: 01:55 sereno Sereno 8 6 87 1015 8 N 0
Oggi h: 00:55 sereno Sereno 8 6 87 1015 7 N 1.8
Ieri h: 23:55 sereno Sereno 9 9 100 1015 7 N 5.5
Ieri h: 22:55 sereno Sereno 9 9 100 1015 6 S 7.4
Ieri h: 22:15 foschia Foschia 10 10 100 1015 2 N 5.5
Ieri h: 21:55 nebbia Banco di Nebbia 10 10 100 1015 0.5 N 5.5
Ieri h: 20:55 foschia Foschia 10 10 100 1015 5 S 9.3
Ieri h: 19:55 sereno Sereno 11 10 93 1014 6 S 11.1
Ieri h: 18:55 sereno Sereno 12 10 87 1014 8 S 9.3
Ieri h: 16:55 sereno Sereno 17 7 51 1013 10 S 16.7
Ieri h: 15:55 sereno Sereno 17 6 48 1013 10 S 22.2
Ieri h: 14:55 sereno Sereno 18 6 45 1013 10 S/SE 20.3
Ieri h: 13:55 sereno Sereno 18 6 45 1013 10 S/SE 20.3
Ieri h: 12:55 sereno Sereno 18 7 48 1014 10 S/SE 20.3